»·PEaware :: N4D KPSP-KEMT

N4D :: KPSP-KEMT

FLIGHT INFORMATION

Flight Status: Arrived
Operator: Privately registered:
United States
More flights under this callsign
Pilot: Alec D. (17934)
Aircraft: BEECH AIRCRAFT A90-E90 KING AIR
(BE9L)
More flights by this aircraft type
Origin: KPSP Palm Springs Intl
United States
Destination: KEMT El Monte
United States
More flights between these airports :: More routes between these airports
Route: CATH1 PSP V388 PDZ PDZ270/013 RNDAL V363 POM
File this flight plan on PilotEdge
Remarks:
Altitude:
(Current/Filed)
10,000ft
Speed:
(Current/Filed)
235kts
Departed: 01-Aug-18 06:22 PM
Arrived: 01-Aug-18 06:53 PM
Distance/Time
Traveled:
77nm/0:31
Distance/Time
To Go:
Arrived

Flight Plot

Page will automatically refresh every two minutes.

Flight plan parsing failed; only flown route is shown


Map Options




Map Legend


Flown Route
Filed Route
Departure Airport
Arrival Airport
Navaid (VOR, NDB)
Fix

Horizontal Profiles

Position Reports

Time Latitude Longitude Heading Altitude Ground
Speed
01-Aug-18 18:04 33.825879 -116.510117 268 482ft 0kts
01-Aug-18 18:05 33.825879 -116.510117 268 482ft 0kts
01-Aug-18 18:06 33.825879 -116.510119 268 482ft 0kts
01-Aug-18 18:07 33.825878 -116.510126 268 482ft 0kts
01-Aug-18 18:08 33.825878 -116.510133 268 482ft 0kts
01-Aug-18 18:09 33.825878 -116.510139 268 482ft 0kts
01-Aug-18 18:10 33.825878 -116.510146 268 482ft 0kts
01-Aug-18 18:11 33.825878 -116.510153 268 482ft 0kts
01-Aug-18 18:12 33.825878 -116.510160 268 482ft 0kts
01-Aug-18 18:13 33.825878 -116.510167 268 482ft 0kts
01-Aug-18 18:14 33.825878 -116.510173 268 482ft 0kts
01-Aug-18 18:15 33.825877 -116.510179 268 482ft 0kts
01-Aug-18 18:16 33.825877 -116.510184 268 482ft 0kts
01-Aug-18 18:17 33.825877 -116.510192 268 482ft 0kts
01-Aug-18 18:18 33.825877 -116.510199 268 482ft 0kts
01-Aug-18 18:19 33.824507 -116.506762 116 482ft 17kts
01-Aug-18 18:20 33.819493 -116.500349 144 482ft 34kts
01-Aug-18 18:21 33.817464 -116.498099 53 482ft 0kts
01-Aug-18 18:22 33.817743 -116.497652 54 482ft 13kts
01-Aug-18 18:23 33.826310 -116.504686 324 533ft 100kts
01-Aug-18 18:24 33.852487 -116.528840 319 1807ft 130kts
01-Aug-18 18:25 33.883541 -116.556130 320 3075ft 145kts
01-Aug-18 18:26 33.910706 -116.540311 114 4308ft 157kts
01-Aug-18 18:27 33.890569 -116.493274 117 5574ft 162kts
01-Aug-18 18:28 33.871851 -116.442723 115 6790ft 167kts
01-Aug-18 18:29 33.896952 -116.418167 306 7974ft 162kts
01-Aug-18 18:30 33.911078 -116.467984 281 9190ft 162kts
01-Aug-18 18:31 33.920184 -116.523192 278 10311ft 171kts
01-Aug-18 18:32 33.928477 -116.580307 277 11503ft 173kts
01-Aug-18 18:33 33.937266 -116.640931 278 12110ft 204kts
01-Aug-18 18:34 33.947752 -116.712806 278 12156ft 226kts
01-Aug-18 18:35 33.949976 -116.789082 266 12209ft 231kts
01-Aug-18 18:36 33.947376 -116.867493 266 12103ft 235kts
01-Aug-18 18:37 33.944644 -116.946152 266 12095ft 234kts
01-Aug-18 18:38 33.941877 -117.024431 266 12080ft 234kts
01-Aug-18 18:39 33.939097 -117.103013 267 12061ft 234kts
01-Aug-18 18:40 33.938078 -117.181336 266 12049ft 234kts
01-Aug-18 18:41 33.935218 -117.259378 265 12036ft 233kts
01-Aug-18 18:42 33.927463 -117.336974 259 12026ft 233kts
01-Aug-18 18:43 33.926166 -117.414965 264 12011ft 233kts
01-Aug-18 18:44 33.922375 -117.493009 265 11743ft 239kts
01-Aug-18 18:45 33.929206 -117.572857 286 10556ft 242kts
01-Aug-18 18:46 33.948174 -117.650035 284 9358ft 239kts
01-Aug-18 18:47 33.965014 -117.726816 283 8157ft 235kts
01-Aug-18 18:48 33.999846 -117.791371 311 6980ft 233kts
01-Aug-18 18:49 34.043375 -117.848851 311 5325ft 228kts
01-Aug-18 18:50 34.085214 -117.901277 313 3828ft 217kts
01-Aug-18 18:51 34.124815 -117.954966 309 2134ft 212kts
01-Aug-18 18:52 34.127060 -118.002469 233 1431ft 112kts
01-Aug-18 18:53 34.104204 -118.024422 205 748ft 96kts
01-Aug-18 18:54 34.084262 -118.035830 206 301ft 31kts
01-Aug-18 18:55 34.080948 -118.037191 88 301ft 0kts
01-Aug-18 18:56 34.081388 -118.036737 24 301ft 7kts
01-Aug-18 18:57 34.084650 -118.034837 26 301ft 19kts
01-Aug-18 18:58 34.084824 -118.033228 114 301ft 0kts
01-Aug-18 18:59 34.084824 -118.033228 114 301ft 0kts

Navigation Log

Ident Type
Flight plan parsing failed, navigation log unavailable